WI79 weather

Town Line Airport
Greenwood, Wisconsin, United States

Public forecast

Using degrees Fahrenheit for public forecast. Weather courtesy of forecast.io.

Closest aviation weather report (METAR) to Town Line Airport

Closest report is Taylor County Airport, 18.4 nm (34.0 km) NE. Retrieved 2020/02/18 06:35 UTC (0 seconds ago):

KMDZ 180635Z AUTO 34004KT 1 1/4SM UP OVC019 M03/M03 A2980 RMK AO2 T10301035

Closest aviation forecast (TAF) to Town Line Airport

Closest forecast is Central Wisconsin Airport, 38.2 nm (70.7 km) E. Retrieved 2020/02/18 06:22 UTC (0 seconds ago):

TAF KCWA 180520Z 1806/1906 09004KT 2SM -SN OVC012 TEMPO 1806/1807 1SM -SN BR OVC006 FM180700 33009G16KT 3SM -SHSN BKN006 FM180900 31011G19KT P6SM BKN035 AMD LTD TO CLD VIS AND WIND TIL 181200